Time;durP1;ratioP1;P1;durP2;ratioP2;P2;SDS_P1;SDS_P2;PMS_P1;PMS_P2;Temp;Humidity;BMP_temperature;BMP_pressure;BME280_temperature;BME280_humidity;BME280_pressure;Samples;Min_cycle;Max_cycle;Signal;HPM_P1;HPM_P2
2021/06/10 00:00:11;;;;;;;58.13;54.63;;;9.30;99.90;;;;;;5093692;28;20093;-54
2021/06/10 00:02:38;;;;;;;57.72;54.28;;;9.30;99.90;;;;;;5093748;28;20017;-55
2021/06/10 00:05:08;;;;;;;59.08;55.47;;;9.20;99.90;;;;;;5093570;28;20055;-55
2021/06/10 00:07:36;;;;;;;57.85;54.25;;;9.30;99.90;;;;;;5093830;28;20024;-56
2021/06/10 00:10:09;;;;;;;61.63;58.00;;;9.40;99.90;;;;;;5093695;28;20027;-50
2021/06/10 00:12:36;;;;;;;64.85;60.95;;;9.30;99.90;;;;;;5093443;28;20388;-50
2021/06/10 00:15:06;;;;;;;61.20;57.60;;;9.20;99.90;;;;;;5093217;28;20016;-51
2021/06/10 00:17:34;;;;;;;64.05;60.25;;;9.10;99.90;;;;;;5093542;28;20478;-47
2021/06/10 00:20:01;;;;;;;58.80;55.10;;;9.10;99.90;;;;;;5093169;28;20081;-48
2021/06/10 00:22:29;;;;;;;56.03;52.53;;;9.00;99.90;;;;;;5091946;28;20028;-47
2021/06/10 00:24:56;;;;;;;53.55;50.05;;;9.10;99.90;;;;;;5093102;28;20150;-48
2021/06/10 00:27:23;;;;;;;55.28;51.67;;;9.10;99.90;;;;;;5092802;28;20059;-49
2021/06/10 00:29:51;;;;;;;60.72;56.83;;;9.10;99.90;;;;;;5093197;28;20032;-48
2021/06/10 00:32:18;;;;;;;59.10;55.20;;;9.10;99.90;;;;;;5093192;28;20500;-49
2021/06/10 00:34:46;;;;;;;60.65;56.65;;;9.20;99.90;;;;;;5093059;28;20021;-50
2021/06/10 00:37:14;;;;;;;59.53;55.42;;;9.10;99.90;;;;;;5091616;28;20031;-48
2021/06/10 00:39:45;;;;;;;58.30;54.50;;;9.20;99.90;;;;;;5092823;28;20074;-46
2021/06/10 00:42:12;;;;;;;57.05;53.45;;;9.30;99.90;;;;;;5092910;28;20028;-48
2021/06/10 00:44:40;;;;;;;53.42;49.92;;;9.30;99.90;;;;;;5092738;28;20123;-51
2021/06/10 00:47:07;;;;;;;56.67;52.92;;;9.30;99.90;;;;;;5093037;28;20032;-49
2021/06/10 00:49:34;;;;;;;56.60;52.80;;;9.40;99.90;;;;;;5092946;28;20030;-50
2021/06/10 00:52:03;;;;;;;58.92;54.95;;;9.30;99.90;;;;;;5092891;28;20065;-51
2021/06/10 00:54:31;;;;;;;55.70;51.90;;;9.30;99.90;;;;;;5091556;28;20392;-52
2021/06/10 00:56:59;;;;;;;53.65;50.05;;;9.30;99.90;;;;;;5093134;28;20020;-48
2021/06/10 00:59:27;;;;;;;50.70;47.10;;;9.50;99.90;;;;;;5092749;28;20038;-50
2021/06/10 01:01:54;;;;;;;48.55;45.15;;;9.50;99.90;;;;;;5092900;28;20032;-50
2021/06/10 01:04:21;;;;;;;55.95;52.05;;;9.50;99.90;;;;;;5091714;28;20058;-47
2021/06/10 01:07:13;;;;;;;53.83;50.13;;;9.50;99.90;;;;;;5092670;28;20032;-52
2021/06/10 01:09:51;;;;;;;54.75;51.15;;;9.40;99.90;;;;;;5092616;28;20401;-51
2021/06/10 01:13:01;;;;;;;53.40;49.70;;;9.30;99.90;;;;;;5092784;28;20420;-51
2021/06/10 01:15:31;;;;;;;51.40;47.90;;;9.40;99.90;;;;;;5073096;28;20086;-50
2021/06/10 01:18:00;;;;;;;51.95;48.45;;;9.30;99.90;;;;;;5091646;28;20020;-52
2021/06/10 01:20:29;;;;;;;52.72;49.33;;;9.20;99.90;;;;;;5092663;28;20384;-50
2021/06/10 01:23:02;;;;;;;58.22;54.42;;;9.20;99.90;;;;;;5092589;28;20485;-47
2021/06/10 01:25:39;;;;;;;54.13;50.53;;;9.20;99.90;;;;;;5092615;28;20038;-49
2021/06/10 01:28:34;;;;;;;54.05;50.45;;;9.20;99.90;;;;;;5092845;28;20020;-49
2021/06/10 01:31:05;;;;;;;54.17;50.58;;;9.30;99.90;;;;;;5086649;28;20032;-51
2021/06/10 01:33:54;;;;;;;53.70;50.10;;;9.30;99.90;;;;;;5092585;28;20020;-50
2021/06/10 01:36:26;;;;;;;54.80;51.20;;;9.40;99.90;;;;;;5092477;28;20039;-53
2021/06/10 01:38:57;;;;;;;50.88;47.50;;;9.40;99.90;;;;;;5093169;28;20020;-50
2021/06/10 01:41:26;;;;;;;53.42;49.72;;;9.40;99.90;;;;;;5096159;28;20024;-51
2021/06/10 01:43:56;;;;;;;51.08;47.78;;;9.40;99.90;;;;;;5095936;28;20040;-48
2021/06/10 01:46:28;;;;;;;47.77;44.47;;;9.50;99.90;;;;;;5096055;28;20032;-53
2021/06/10 01:48:56;;;;;;;53.22;49.83;;;9.50;99.90;;;;;;5096090;28;20020;-48
2021/06/10 01:51:27;;;;;;;49.05;45.85;;;9.50;99.90;;;;;;5096144;28;20099;-48
2021/06/10 01:53:57;;;;;;;54.25;50.75;;;9.60;99.90;;;;;;5096003;28;20020;-50
2021/06/10 01:56:25;;;;;;;52.58;49.17;;;9.70;99.90;;;;;;5096000;28;20373;-49
2021/06/10 01:58:55;;;;;;;51.75;48.25;;;9.60;99.90;;;;;;5095764;28;20028;-47
2021/06/10 02:01:28;;;;;;;52.70;49.40;;;9.60;99.90;;;;;;5095871;28;20081;-48
2021/06/10 02:03:57;;;;;;;49.42;46.22;;;9.60;99.90;;;;;;5095835;28;20442;-52
2021/06/10 02:06:26;;;;;;;48.85;45.75;;;9.60;99.90;;;;;;5095860;28;20032;-50
2021/06/10 02:08:54;;;;;;;48.60;45.50;;;9.60;99.90;;;;;;5095750;28;20469;-49
2021/06/10 02:11:22;;;;;;;55.30;51.95;;;9.70;99.90;;;;;;5095652;28;20052;-49
2021/06/10 02:13:50;;;;;;;54.53;51.22;;;9.70;99.90;;;;;;5095684;28;20107;-51
2021/06/10 02:16:19;;;;;;;53.70;50.33;;;9.60;99.90;;;;;;5095586;28;20491;-51
2021/06/10 02:18:48;;;;;;;56.63;53.03;;;9.60;99.90;;;;;;5095420;28;20426;-49
2021/06/10 02:21:16;;;;;;;54.10;50.50;;;9.70;99.90;;;;;;5095459;28;20512;-50
2021/06/10 02:23:46;;;;;;;50.65;47.25;;;9.70;99.90;;;;;;5095315;28;20480;-46
2021/06/10 02:26:15;;;;;;;48.78;45.58;;;9.80;99.90;;;;;;5095122;28;20054;-48
2021/06/10 02:28:42;;;;;;;53.38;49.88;;;9.80;99.90;;;;;;5095268;28;20020;-49
2021/06/10 02:31:11;;;;;;;50.92;47.45;;;9.80;99.90;;;;;;5095249;28;20024;-48
2021/06/10 02:33:40;;;;;;;51.65;48.15;;;9.80;99.90;;;;;;5095247;28;20417;-48
2021/06/10 02:36:11;;;;;;;50.80;47.40;;;9.90;99.90;;;;;;5095058;28;20020;-52
2021/06/10 02:38:43;;;;;;;52.38;48.88;;;9.90;99.90;;;;;;5095033;28;20020;-52
2021/06/10 02:41:11;;;;;;;48.83;45.45;;;10.00;99.90;;;;;;5095298;28;20311;-51
2021/06/10 02:43:39;;;;;;;47.97;44.65;;;10.00;99.90;;;;;;5094833;28;20040;-49
2021/06/10 02:46:09;;;;;;;51.40;48.00;;;10.00;99.90;;;;;;5093676;28;20028;-52
2021/06/10 02:48:38;;;;;;;55.25;51.65;;;10.00;99.90;;;;;;5094791;28;20016;-50
2021/06/10 02:51:06;;;;;;;54.38;50.78;;;10.00;99.90;;;;;;5094621;28;20048;-49
2021/06/10 02:53:35;;;;;;;50.47;46.97;;;10.10;99.90;;;;;;5094646;28;20027;-47
2021/06/10 02:56:04;;;;;;;48.78;45.47;;;10.10;99.90;;;;;;5094623;28;20054;-47
2021/06/10 02:58:32;;;;;;;46.78;43.47;;;10.20;99.90;;;;;;5094381;28;20492;-51
2021/06/10 03:01:03;;;;;;;48.40;45.00;;;10.40;99.90;;;;;;5094378;28;20028;-50
2021/06/10 03:03:31;;;;;;;47.90;44.60;;;10.50;99.90;;;;;;5093309;28;20037;-50
2021/06/10 03:06:00;;;;;;;51.78;48.28;;;10.50;99.90;;;;;;5092911;28;20027;-53
2021/06/10 03:08:28;;;;;;;50.40;47.10;;;10.50;99.90;;;;;;5094501;28;20105;-52
2021/06/10 03:11:02;;;;;;;48.50;45.35;;;10.30;99.90;;;;;;5094244;28;20023;-52
2021/06/10 03:13:33;;;;;;;48.30;45.00;;;10.40;99.90;;;;;;5094114;28;20527;-52
2021/06/10 03:16:04;;;;;;;45.95;42.75;;;10.40;99.90;;;;;;5094149;28;20129;-50
2021/06/10 03:18:33;;;;;;;45.85;42.75;;;10.50;99.90;;;;;;5094128;28;20378;-49
2021/06/10 03:21:01;;;;;;;47.03;43.83;;;10.60;99.90;;;;;;5094361;28;20032;-47
2021/06/10 03:23:29;;;;;;;46.45;43.42;;;10.60;99.90;;;;;;5094368;28;20023;-53
2021/06/10 03:25:59;;;;;;;44.08;41.17;;;10.60;99.90;;;;;;5094212;28;20524;-47
2021/06/10 03:28:28;;;;;;;43.03;40.13;;;10.60;99.90;;;;;;5094224;28;20020;-48
2021/06/10 03:30:55;;;;;;;44.75;41.75;;;10.80;99.90;;;;;;5094220;28;20042;-51
2021/06/10 03:33:23;;;;;;;44.83;41.88;;;10.90;99.90;;;;;;5092844;28;20052;-50
2021/06/10 03:35:52;;;;;;;51.22;48.03;;;10.90;99.90;;;;;;5094101;28;20032;-50
2021/06/10 03:38:20;;;;;;;55.78;52.38;;;10.80;99.90;;;;;;5094010;28;20373;-49
2021/06/10 03:40:49;;;;;;;50.65;47.45;;;10.90;99.90;;;;;;5093995;28;20020;-51
2021/06/10 03:43:17;;;;;;;48.22;45.15;;;10.80;99.90;;;;;;5093752;28;20036;-53
2021/06/10 03:45:46;;;;;;;45.38;42.28;;;10.70;99.90;;;;;;5092717;28;20460;-49
2021/06/10 03:48:14;;;;;;;48.70;45.70;;;10.60;99.90;;;;;;5093882;28;20111;-53
2021/06/10 03:50:42;;;;;;;48.88;45.78;;;10.80;99.90;;;;;;5093551;28;20026;-48
2021/06/10 03:53:10;;;;;;;47.22;44.13;;;10.80;99.90;;;;;;5093725;28;20434;-47
2021/06/10 03:55:41;;;;;;;49.28;46.28;;;10.90;99.90;;;;;;5093764;28;20051;-48
2021/06/10 03:58:09;;;;;;;42.20;39.30;;;10.80;99.90;;;;;;5093757;28;20099;-47
2021/06/10 04:00:36;;;;;;;40.25;37.45;;;10.70;99.90;;;;;;5093628;28;20023;-48
2021/06/10 04:03:03;;;;;;;50.00;46.90;;;10.60;99.90;;;;;;5093127;28;20066;-53
2021/06/10 04:05:31;;;;;;;46.55;43.58;;;10.60;99.90;;;;;;5093597;28;20058;-50
2021/06/10 04:07:59;;;;;;;50.05;47.05;;;10.60;99.90;;;;;;5093563;28;20024;-52
2021/06/10 04:10:27;;;;;;;51.28;48.17;;;10.50;99.90;;;;;;5093721;28;20385;-52
2021/06/10 04:12:54;;;;;;;51.08;47.97;;;10.60;99.90;;;;;;5093484;28;20042;-52
2021/06/10 04:15:22;;;;;;;51.00;47.90;;;10.40;99.90;;;;;;5093322;28;20016;-50
2021/06/10 04:17:49;;;;;;;42.75;39.85;;;10.40;99.90;;;;;;5093236;28;20119;-47
2021/06/10 04:20:17;;;;;;;42.72;39.72;;;10.30;99.90;;;;;;5093325;28;20073;-49
2021/06/10 04:22:45;;;;;;;42.95;39.95;;;10.40;99.90;;;;;;5093362;28;20536;-49
2021/06/10 04:25:13;;;;;;;42.53;39.53;;;10.30;99.90;;;;;;5093158;28;20016;-53
2021/06/10 04:27:40;;;;;;;43.53;40.45;;;10.20;99.90;;;;;;5093423;28;20070;-51
2021/06/10 04:30:11;;;;;;;42.10;39.00;;;10.30;99.90;;;;;;5093235;28;20028;-52
2021/06/10 04:32:38;;;;;;;;;;;10.30;99.90;;;;;;5093604;28;20499;-52
2021/06/10 04:35:06;;;;;;;43.63;40.63;;;10.20;99.90;;;;;;5093270;28;19918;-47
2021/06/10 04:37:34;;;;;;;44.85;41.78;;;10.10;99.90;;;;;;5093199;28;20369;-49
2021/06/10 04:40:01;;;;;;;42.97;39.97;;;10.10;99.90;;;;;;5093180;28;20055;-50
2021/06/10 04:42:28;;;;;;;45.85;42.83;;;10.10;99.90;;;;;;5093059;28;20481;-46
2021/06/10 04:44:56;;;;;;;46.75;43.65;;;10.10;99.90;;;;;;5092839;28;20036;-49
2021/06/10 04:47:23;;;;;;;47.15;43.95;;;10.10;99.90;;;;;;5092942;28;20024;-49
2021/06/10 04:49:50;;;;;;;45.00;41.80;;;10.10;99.90;;;;;;5093043;28;20031;-52
2021/06/10 04:52:18;;;;;;;44.22;41.22;;;10.10;99.90;;;;;;5092939;28;20025;-51
2021/06/10 04:54:45;;;;;;;44.88;41.88;;;10.00;99.90;;;;;;5093000;28;20044;-51
2021/06/10 04:57:16;;;;;;;50.72;47.53;;;10.10;99.90;;;;;;5092920;28;20024;-53
2021/06/10 04:59:43;;;;;;;44.55;41.55;;;10.10;99.90;;;;;;5092953;28;20028;-53
2021/06/10 05:02:10;;;;;;;45.55;42.47;;;10.00;99.90;;;;;;5092937;28;20024;-54
2021/06/10 05:04:38;;;;;;;56.03;52.63;;;9.90;99.90;;;;;;5092901;28;20070;-49
2021/06/10 05:07:05;;;;;;;53.88;50.40;;;10.00;99.90;;;;;;5092647;28;20541;-49
2021/06/10 05:09:34;;;;;;;47.35;44.15;;;9.90;99.90;;;;;;5092859;28;20017;-49
2021/06/10 05:12:01;;;;;;;56.55;53.05;;;9.90;99.90;;;;;;5092798;28;20149;-51
2021/06/10 05:14:28;;;;;;;54.78;51.38;;;9.90;99.90;;;;;;5094345;28;20035;-51
2021/06/10 05:16:56;;;;;;;53.15;49.75;;;9.80;99.90;;;;;;5096882;28;20476;-52
2021/06/10 05:19:23;;;;;;;50.30;47.10;;;9.70;99.90;;;;;;5096786;28;20034;-52
2021/06/10 05:21:50;;;;;;;53.30;49.70;;;9.70;99.90;;;;;;5096720;28;20028;-50
2021/06/10 05:24:19;;;;;;;49.83;46.63;;;9.70;99.90;;;;;;5096707;28;20024;-48
2021/06/10 05:26:46;;;;;;;51.53;48.20;;;9.60;99.90;;;;;;5096466;28;20022;-53
2021/06/10 05:29:17;;;;;;;50.33;47.03;;;9.60;99.90;;;;;;5096617;28;20028;-48
2021/06/10 05:31:44;;;;;;;47.83;44.53;;;9.60;99.90;;;;;;5096951;28;20061;-51
2021/06/10 05:34:11;;;;;;;54.50;51.10;;;9.50;99.90;;;;;;5096454;28;20028;-58
2021/06/10 05:36:39;;;;;;;47.53;44.38;;;9.50;99.90;;;;;;5096518;28;20533;-51
2021/06/10 05:39:06;;;;;;;51.53;48.13;;;9.50;99.90;;;;;;5096373;28;20024;-52
2021/06/10 05:41:34;;;;;;;54.83;51.33;;;9.50;99.90;;;;;;5096215;28;20070;-50
2021/06/10 05:44:01;;;;;;;51.38;47.97;;;9.50;99.90;;;;;;5096248;28;20080;-53
2021/06/10 05:46:29;;;;;;;46.63;43.33;;;9.50;99.90;;;;;;5096216;28;20055;-51
2021/06/10 05:48:56;;;;;;;46.28;42.97;;;9.40;99.90;;;;;;5096235;28;20020;-49
2021/06/10 05:51:23;;;;;;;45.00;41.80;;;9.40;99.90;;;;;;5096099;28;20016;-50
2021/06/10 05:53:51;;;;;;;45.20;41.80;;;9.30;99.90;;;;;;5094821;28;20039;-48
2021/06/10 05:56:18;;;;;;;46.10;42.70;;;9.30;99.90;;;;;;5095927;28;20429;-51
2021/06/10 05:58:45;;;;;;;49.80;46.30;;;9.30;99.90;;;;;;5094585;28;20032;-51
2021/06/10 06:01:13;;;;;;;46.70;43.22;;;9.30;99.90;;;;;;5095921;28;20110;-53
2021/06/10 06:03:41;;;;;;;44.53;40.92;;;9.30;99.90;;;;;;5095708;28;20117;-52
2021/06/10 06:06:09;;;;;;;47.65;44.20;;;9.30;99.90;;;;;;5095634;28;20515;-50
2021/06/10 06:08:36;;;;;;;45.10;41.70;;;9.30;99.90;;;;;;5095759;28;20028;-50
2021/06/10 06:11:04;;;;;;;41.03;37.53;;;9.30;99.90;;;;;;5095639;28;20020;-50
2021/06/10 06:13:44;;;;;;;40.80;37.42;;;9.20;99.90;;;;;;5095510;28;20489;-48
2021/06/10 06:16:13;;;;;;;44.80;41.40;;;9.30;99.90;;;;;;5095856;28;20036;-47
2021/06/10 06:18:41;;;;;;;44.00;40.65;;;9.20;99.90;;;;;;5095520;28;20024;-47
2021/06/10 06:21:09;;;;;;;45.70;42.33;;;9.30;99.90;;;;;;5094230;28;20118;-48
2021/06/10 06:23:36;;;;;;;44.47;41.08;;;9.10;99.90;;;;;;5095428;28;20414;-46
2021/06/10 06:26:04;;;;;;;39.10;36.00;;;9.20;99.90;;;;;;5094883;28;20024;-49
2021/06/10 06:28:31;;;;;;;42.72;39.45;;;9.20;99.90;;;;;;5095362;28;20058;-49
2021/06/10 06:30:59;;;;;;;41.90;38.70;;;9.20;99.90;;;;;;5095412;28;20082;-46
2021/06/10 06:33:26;;;;;;;43.65;40.08;;;9.20;99.90;;;;;;5095278;28;20026;-53
2021/06/10 06:35:55;;;;;;;42.97;39.78;;;9.20;99.90;;;;;;5095448;28;20035;-50
2021/06/10 06:38:22;;;;;;;41.35;38.25;;;9.10;99.90;;;;;;5095440;28;20127;-49
2021/06/10 06:40:50;;;;;;;40.35;36.85;;;9.20;99.90;;;;;;5095413;28;20103;-49
2021/06/10 06:43:18;;;;;;;41.65;38.20;;;9.20;99.90;;;;;;5094927;28;20047;-48
2021/06/10 06:45:46;;;;;;;40.53;37.33;;;9.10;99.90;;;;;;5094931;28;20063;-52
2021/06/10 06:48:14;;;;;;;40.05;36.85;;;9.00;99.90;;;;;;5094929;28;20077;-49
2021/06/10 06:50:42;;;;;;;39.65;36.35;;;9.00;99.90;;;;;;5094914;28;20051;-50
2021/06/10 06:53:09;;;;;;;43.70;40.30;;;8.90;99.90;;;;;;5093435;28;20020;-53
2021/06/10 06:55:36;;;;;;;43.38;39.90;;;8.90;99.90;;;;;;5094836;28;20103;-47
2021/06/10 06:58:04;;;;;;;39.72;36.35;;;8.90;99.90;;;;;;5093441;28;20028;-47
2021/06/10 07:00:31;;;;;;;42.53;39.08;;;8.90;99.90;;;;;;5094675;28;20028;-50
2021/06/10 07:02:58;;;;;;;40.50;37.13;;;8.90;99.90;;;;;;5094789;28;20020;-49
2021/06/10 07:05:26;;;;;;;41.90;38.60;;;8.90;99.90;;;;;;5094528;28;20020;-47
2021/06/10 07:07:53;;;;;;;39.00;35.90;;;8.80;99.90;;;;;;5094563;28;20095;-47
2021/06/10 07:10:20;;;;;;;39.97;36.92;;;8.80;99.90;;;;;;5094555;28;20397;-48
2021/06/10 07:12:48;;;;;;;41.03;38.08;;;8.70;99.90;;;;;;5094392;28;20024;-48
2021/06/10 07:15:16;;;;;;;40.33;37.22;;;8.80;99.90;;;;;;5094342;28;20028;-48
2021/06/10 07:17:43;;;;;;;39.78;36.78;;;8.70;99.90;;;;;;5094268;28;20024;-49
2021/06/10 07:20:17;;;;;;;40.00;36.97;;;8.70;99.90;;;;;;5094161;28;20024;-47
2021/06/10 07:22:47;;;;;;;41.65;38.55;;;8.70;99.90;;;;;;5094161;28;20023;-48
2021/06/10 07:25:15;;;;;;;42.90;39.70;;;8.80;99.90;;;;;;5093950;28;20103;-50
2021/06/10 07:27:43;;;;;;;40.97;37.80;;;8.70;99.90;;;;;;5094282;28;20103;-53
2021/06/10 07:30:11;;;;;;;39.53;36.28;;;8.70;99.90;;;;;;5094088;28;20032;-47
2021/06/10 07:32:39;;;;;;;39.33;36.28;;;8.70;99.90;;;;;;5094251;28;20016;-49
2021/06/10 07:35:07;;;;;;;40.60;37.60;;;8.70;99.90;;;;;;5094034;28;20430;-48
2021/06/10 07:37:34;;;;;;;40.70;37.45;;;8.70;99.90;;;;;;5093414;28;20400;-49
2021/06/10 07:40:02;;;;;;;41.03;37.83;;;8.80;99.90;;;;;;5094168;28;20017;-53
2021/06/10 07:42:29;;;;;;;41.78;38.58;;;8.80;99.90;;;;;;5093821;28;20035;-49
2021/06/10 07:44:57;;;;;;;41.22;38.08;;;8.70;99.90;;;;;;5093589;28;20043;-48
2021/06/10 07:47:25;;;;;;;42.13;39.03;;;8.70;99.90;;;;;;5093547;28;20054;-49
2021/06/10 07:49:52;;;;;;;41.42;38.33;;;8.70;99.90;;;;;;5093715;28;20096;-47
2021/06/10 07:52:19;;;;;;;40.00;37.00;;;8.70;99.90;;;;;;5093623;28;20023;-50
2021/06/10 07:54:47;;;;;;;40.33;37.15;;;8.70;99.90;;;;;;5093621;28;20070;-50
2021/06/10 07:57:15;;;;;;;39.03;36.03;;;8.70;99.90;;;;;;5093472;28;20030;-49
2021/06/10 07:59:44;;;;;;;40.92;37.70;;;8.70;99.90;;;;;;5093495;28;20020;-51
2021/06/10 08:02:11;;;;;;;38.63;35.53;;;8.70;99.90;;;;;;5092089;28;20373;-50
2021/06/10 08:04:39;;;;;;;40.25;36.97;;;8.90;99.90;;;;;;5093364;28;20077;-49
2021/06/10 08:07:08;;;;;;;41.80;38.60;;;8.70;99.90;;;;;;5093388;28;20042;-51
2021/06/10 08:09:36;;;;;;;41.45;38.25;;;8.70;99.90;;;;;;5093509;28;20020;-47
2021/06/10 08:12:04;;;;;;;40.05;36.95;;;8.70;99.90;;;;;;5092082;28;20067;-48
2021/06/10 08:14:32;;;;;;;40.40;37.10;;;8.70;99.90;;;;;;5093294;28;20388;-48
2021/06/10 08:16:59;;;;;;;40.03;36.88;;;8.70;99.90;;;;;;5092083;28;20016;-50
2021/06/10 08:19:27;;;;;;;41.17;38.17;;;8.70;99.90;;;;;;5093238;28;20054;-48
2021/06/10 08:21:54;;;;;;;41.58;38.47;;;8.70;99.90;;;;;;5093223;28;20024;-52
2021/06/10 08:24:24;;;;;;;38.33;35.33;;;8.70;99.90;;;;;;5093234;28;20035;-51
2021/06/10 08:26:51;;;;;;;40.70;37.70;;;8.50;99.90;;;;;;5093087;28;20024;-52
2021/06/10 08:29:19;;;;;;;40.72;37.63;;;8.50;99.90;;;;;;5093049;28;20107;-52
2021/06/10 08:31:47;;;;;;;42.78;39.78;;;8.60;99.90;;;;;;5093126;28;20101;-53
2021/06/10 08:34:14;;;;;;;41.95;38.65;;;8.70;99.90;;;;;;5093065;28;20020;-49
2021/06/10 08:36:41;;;;;;;43.33;40.00;;;8.70;99.90;;;;;;5093060;28;20032;-49
2021/06/10 08:39:09;;;;;;;41.67;38.50;;;8.70;99.90;;;;;;5093067;28;20099;-48
2021/06/10 08:41:36;;;;;;;42.20;38.80;;;8.60;99.90;;;;;;5093197;28;20024;-47
2021/06/10 08:44:04;;;;;;;44.95;41.40;;;8.70;99.90;;;;;;5092816;28;20040;-46
2021/06/10 08:46:35;;;;;;;45.10;41.58;;;8.60;99.90;;;;;;5092931;28;20115;-46
2021/06/10 08:49:05;;;;;;;44.15;40.75;;;8.60;99.90;;;;;;5096146;28;20055;-48
2021/06/10 08:51:33;;;;;;;46.20;42.47;;;8.60;99.90;;;;;;5099325;28;20069;-47
2021/06/10 08:54:02;;;;;;;43.03;39.42;;;8.60;99.90;;;;;;5099672;28;20027;-51
2021/06/10 08:56:32;;;;;;;43.58;39.80;;;8.70;99.90;;;;;;5099646;28;20031;-47
2021/06/10 08:59:00;;;;;;;46.58;42.88;;;8.70;99.90;;;;;;5099510;28;20024;-48
2021/06/10 09:01:29;;;;;;;47.50;43.55;;;8.80;99.90;;;;;;5099481;28;20495;-53
2021/06/10 09:03:56;;;;;;;45.47;41.70;;;8.80;99.90;;;;;;5099512;28;20028;-48
2021/06/10 09:06:24;;;;;;;47.47;43.60;;;8.70;99.90;;;;;;5099658;28;20020;-51
2021/06/10 09:08:58;;;;;;;44.97;41.15;;;8.70;99.90;;;;;;5099389;28;20504;-50
2021/06/10 09:11:27;;;;;;;47.42;43.42;;;8.70;99.90;;;;;;5099394;28;20085;-51
2021/06/10 09:13:57;;;;;;;47.67;43.97;;;8.70;99.90;;;;;;5099430;28;20031;-46
2021/06/10 09:16:31;;;;;;;48.20;44.17;;;8.70;99.90;;;;;;5099377;28;20051;-50
2021/06/10 09:19:16;;;;;;;45.92;42.28;;;8.70;99.90;;;;;;5099233;28;20077;-49
2021/06/10 09:21:44;;;;;;;43.88;40.55;;;8.70;99.90;;;;;;5099257;28;20028;-49
2021/06/10 09:24:27;;;;;;;44.20;40.60;;;8.70;99.90;;;;;;5099630;28;20034;-53
2021/06/10 09:27:02;;;;;;;46.53;42.85;;;8.50;99.90;;;;;;5099414;28;20032;-46
2021/06/10 09:29:50;;;;;;;46.35;42.45;;;8.70;99.90;;;;;;5099299;28;20020;-49
2021/06/10 09:32:22;;;;;;;44.30;40.58;;;8.70;99.90;;;;;;5098139;28;20069;-49
2021/06/10 09:35:04;;;;;;;47.20;43.00;;;8.80;99.90;;;;;;5099259;28;20028;-45
2021/06/10 09:37:34;;;;;;;45.55;41.65;;;8.80;99.90;;;;;;5099479;28;20415;-49
2021/06/10 09:40:13;;;;;;;45.22;40.92;;;8.80;99.90;;;;;;5099171;28;20028;-50
2021/06/10 09:42:42;;;;;;;43.60;39.67;;;8.80;99.90;;;;;;5099351;28;20099;-47
2021/06/10 09:45:15;;;;;;;46.60;42.70;;;8.70;99.90;;;;;;5099268;28;20044;-46
2021/06/10 09:47:51;;;;;;;50.72;46.53;;;8.70;99.90;;;;;;5098899;28;20024;-51
2021/06/10 09:50:23;;;;;;;44.53;40.53;;;8.70;99.90;;;;;;5098971;28;20020;-49
2021/06/10 09:52:58;;;;;;;46.35;42.45;;;8.70;99.90;;;;;;5098972;28;20029;-48
2021/06/10 09:55:46;;;;;;;50.50;46.13;;;8.60;99.90;;;;;;5098747;28;20078;-51
2021/06/10 09:58:13;;;;;;;46.17;42.30;;;8.70;99.90;;;;;;5098815;28;20024;-46
2021/06/10 10:00:49;;;;;;;43.70;40.20;;;8.70;99.90;;;;;;5095732;28;20384;-48
2021/06/10 10:03:41;;;;;;;47.92;43.92;;;8.50;99.90;;;;;;5095811;28;20016;-45
2021/06/10 10:06:19;;;;;;;48.80;45.00;;;8.60;99.90;;;;;;5095519;28;20028;-48
2021/06/10 10:08:52;;;;;;;45.42;41.70;;;8.60;99.90;;;;;;5095577;28;20031;-48
2021/06/10 10:11:20;;;;;;;45.10;41.50;;;8.60;99.90;;;;;;5095667;28;20013;-51
2021/06/10 10:13:49;;;;;;;45.28;41.60;;;8.50;99.90;;;;;;5095500;28;20095;-50
2021/06/10 10:16:28;;;;;;;42.70;39.17;;;8.60;99.90;;;;;;5095404;28;20024;-50
2021/06/10 10:18:56;;;;;;;45.25;41.45;;;8.50;99.90;;;;;;5095390;28;20027;-49
2021/06/10 10:21:29;;;;;;;43.80;40.35;;;8.60;99.90;;;;;;5095217;28;20043;-45
2021/06/10 10:24:04;;;;;;;42.42;38.88;;;8.50;99.90;;;;;;5095504;28;20546;-46
2021/06/10 10:26:33;;;;;;;41.95;38.35;;;8.50;99.90;;;;;;5095215;28;20456;-47
2021/06/10 10:29:02;;;;;;;40.28;37.03;;;8.50;99.90;;;;;;5095208;28;20073;-49
2021/06/10 10:31:32;;;;;;;42.30;38.83;;;8.40;99.90;;;;;;5095249;28;20113;-50
2021/06/10 10:34:00;;;;;;;41.35;38.05;;;8.40;99.90;;;;;;5095039;28;20388;-51
2021/06/10 10:36:33;;;;;;;40.13;36.72;;;8.30;99.90;;;;;;5095052;28;20054;-48
2021/06/10 10:39:10;;;;;;;39.53;36.22;;;8.20;99.90;;;;;;5095099;28;20065;-47
2021/06/10 10:41:52;;;;;;;41.05;37.67;;;8.20;99.90;;;;;;5095043;28;20542;-57
2021/06/10 10:44:26;;;;;;;41.38;38.03;;;8.10;99.90;;;;;;5094890;28;20111;-49
2021/06/10 10:47:10;;;;;;;45.17;41.78;;;8.00;99.90;;;;;;5094790;28;20036;-53
2021/06/10 10:50:02;;;;;;;42.60;39.20;;;7.90;99.90;;;;;;5094790;28;20098;-48
2021/06/10 10:52:35;;;;;;;42.17;38.78;;;7.90;99.90;;;;;;5095272;28;20472;-50
2021/06/10 10:55:18;;;;;;;47.03;43.42;;;7.90;99.90;;;;;;5094079;28;20016;-51
2021/06/10 10:57:45;;;;;;;45.42;41.92;;;7.90;99.90;;;;;;5094832;28;20469;-53
2021/06/10 11:00:21;;;;;;;48.45;44.92;;;7.90;99.90;;;;;;5094885;28;20028;-51
2021/06/10 11:03:31;;;;;;;48.05;44.47;;;7.90;99.90;;;;;;5093798;28;20028;-53
2021/06/10 11:06:20;;;;;;;47.88;44.38;;;8.00;99.90;;;;;;5089714;28;20089;-52
2021/06/10 11:09:10;;;;;;;47.90;44.17;;;8.00;99.90;;;;;;5094799;28;20492;-51
2021/06/10 11:11:53;;;;;;;49.35;45.65;;;7.90;99.90;;;;;;5093684;28;20431;-52
2021/06/10 11:14:42;;;;;;;47.15;43.35;;;8.00;99.90;;;;;;5094634;28;20028;-49
2021/06/10 11:17:32;;;;;;;48.92;45.33;;;8.00;99.90;;;;;;5094771;28;20074;-50
2021/06/10 11:20:10;;;;;;;58.45;54.45;;;8.00;99.90;;;;;;5094861;28;20028;-53
2021/06/10 11:22:42;;;;;;;47.15;43.65;;;8.00;99.90;;;;;;5094545;28;20032;-51
2021/06/10 11:25:35;;;;;;;46.67;43.03;;;8.00;99.90;;;;;;5094419;28;20054;-51
2021/06/10 11:28:27;;;;;;;46.03;42.42;;;8.00;99.90;;;;;;5094352;28;20090;-50
2021/06/10 11:31:20;;;;;;;46.67;43.08;;;7.90;99.90;;;;;;5094176;28;20039;-52
2021/06/10 11:33:49;;;;;;;48.08;44.38;;;7.90;99.90;;;;;;5093898;28;20115;-54
2021/06/10 11:36:17;;;;;;;45.35;41.85;;;7.90;99.90;;;;;;5093763;28;20038;-55
2021/06/10 11:38:52;;;;;;;50.35;46.50;;;7.90;99.90;;;;;;5093920;28;20145;-52
2021/06/10 11:41:25;;;;;;;44.38;40.67;;;7.90;99.90;;;;;;5093691;28;20073;-51
2021/06/10 11:43:56;;;;;;;51.10;47.30;;;7.90;99.90;;;;;;5093628;28;20036;-49
2021/06/10 11:46:34;;;;;;;48.55;44.75;;;7.90;99.90;;;;;;5093708;28;20032;-52
2021/06/10 11:49:01;;;;;;;50.50;46.90;;;7.80;99.90;;;;;;5093668;28;20032;-53
2021/06/10 11:51:31;;;;;;;48.60;45.10;;;7.90;99.90;;;;;;5094016;28;20094;-49
2021/06/10 11:54:10;;;;;;;48.50;44.80;;;7.90;99.90;;;;;;5093768;28;20026;-52
2021/06/10 11:56:37;;;;;;;49.25;45.45;;;7.80;99.90;;;;;;5093800;28;20257;-50
2021/06/10 11:59:19;;;;;;;46.22;42.53;;;7.80;99.90;;;;;;5093616;28;20544;-51
2021/06/10 12:02:04;;;;;;;58.35;54.25;;;7.80;99.90;;;;;;5093656;28;20035;-48
2021/06/10 12:04:33;;;;;;;48.75;45.20;;;7.70;99.90;;;;;;5093635;28;20039;-52
2021/06/10 12:07:13;;;;;;;51.33;47.60;;;7.70;99.90;;;;;;5093537;28;20024;-54
2021/06/10 12:10:20;;;;;;;48.35;44.58;;;7.60;99.90;;;;;;5093807;28;20048;-52
2021/06/10 12:12:52;;;;;;;55.13;51.13;;;7.50;99.90;;;;;;5085173;28;20027;-52
2021/06/10 12:15:30;;;;;;;49.33;45.63;;;7.50;99.90;;;;;;5093457;28;20016;-50
2021/06/10 12:17:59;;;;;;;54.22;50.13;;;7.50;99.90;;;;;;5093348;28;20381;-50
2021/06/10 12:20:35;;;;;;;54.95;50.97;;;7.50;99.90;;;;;;5093265;28;20020;-54
2021/06/10 12:23:10;;;;;;;63.88;59.75;;;7.50;99.90;;;;;;5092964;28;20031;-50
2021/06/10 12:25:38;;;;;;;53.05;49.05;;;7.50;99.90;;;;;;5093179;28;20130;-52
2021/06/10 12:28:05;;;;;;;47.40;43.72;;;7.50;99.90;;;;;;5093267;28;20020;-51
2021/06/10 12:30:38;;;;;;;51.35;47.45;;;7.50;99.90;;;;;;5093253;28;20017;-52
2021/06/10 12:33:20;;;;;;;52.17;48.28;;;7.50;99.90;;;;;;5093130;28;20028;-54
2021/06/10 12:35:50;;;;;;;52.78;48.78;;;7.50;99.90;;;;;;5093160;28;20028;-51
2021/06/10 12:38:26;;;;;;;50.95;47.05;;;7.40;99.90;;;;;;5092959;28;20032;-52
2021/06/10 12:40:53;;;;;;;60.53;56.50;;;7.40;99.90;;;;;;5093135;28;20024;-50
2021/06/10 12:43:24;;;;;;;52.17;48.47;;;7.50;99.90;;;;;;5092914;28;20086;-49
2021/06/10 12:46:03;;;;;;;54.25;50.15;;;7.50;99.90;;;;;;5093039;28;20115;-49
2021/06/10 12:48:33;;;;;;;58.60;54.50;;;7.70;99.90;;;;;;5093126;28;20038;-50
2021/06/10 12:51:22;;;;;;;54.03;50.13;;;7.70;99.90;;;;;;5093064;28;20493;-54
2021/06/10 12:54:05;;;;;;;49.13;45.47;;;7.80;99.90;;;;;;5092991;28;20020;-54